sensor_id;sensor_type;location;lat;lon;timestamp;temperature;humidity
25352;DHT22;13304;48.464;8.712;2023-09-19T00:01:42;19.20;90.00
25352;DHT22;13304;48.464;8.712;2023-09-19T00:04:11;19.10;90.00
25352;DHT22;13304;48.464;8.712;2023-09-19T00:06:38;19.10;90.00
25352;DHT22;13304;48.464;8.712;2023-09-19T00:09:04;19.20;90.00
25352;DHT22;13304;48.464;8.712;2023-09-19T00:11:30;19.20;90.00
25352;DHT22;13304;48.464;8.712;2023-09-19T00:13:57;19.10;90.00
25352;DHT22;13304;48.464;8.712;2023-09-19T00:16:25;19.10;90.00
25352;DHT22;13304;48.464;8.712;2023-09-19T00:18:51;19.10;90.00
25352;DHT22;13304;48.464;8.712;2023-09-19T00:21:18;19.10;89.90
25352;DHT22;13304;48.464;8.712;2023-09-19T00:23:47;19.20;90.30
25352;DHT22;13304;48.464;8.712;2023-09-19T00:26:12;19.10;89.80
25352;DHT22;13304;48.464;8.712;2023-09-19T00:28:38;19.10;89.80
25352;DHT22;13304;48.464;8.712;2023-09-19T00:31:07;19.10;90.20
25352;DHT22;13304;48.464;8.712;2023-09-19T00:33:34;19.10;89.70
25352;DHT22;13304;48.464;8.712;2023-09-19T00:35:59;19.00;89.80
25352;DHT22;13304;48.464;8.712;2023-09-19T00:38:27;19.10;89.50
25352;DHT22;13304;48.464;8.712;2023-09-19T00:40:53;19.10;89.50
25352;DHT22;13304;48.464;8.712;2023-09-19T00:43:20;19.10;89.40
25352;DHT22;13304;48.464;8.712;2023-09-19T00:45:49;19.10;89.50
25352;DHT22;13304;48.464;8.712;2023-09-19T00:48:16;19.10;89.40
25352;DHT22;13304;48.464;8.712;2023-09-19T00:50:44;19.10;89.40
25352;DHT22;13304;48.464;8.712;2023-09-19T00:53:14;19.10;89.40
25352;DHT22;13304;48.464;8.712;2023-09-19T00:55:40;19.10;89.30
25352;DHT22;13304;48.464;8.712;2023-09-19T00:58:08;19.10;89.30
25352;DHT22;13304;48.464;8.712;2023-09-19T01:00:35;19.00;89.20
25352;DHT22;13304;48.464;8.712;2023-09-19T01:03:02;19.00;89.30
25352;DHT22;13304;48.464;8.712;2023-09-19T01:05:27;19.00;89.30
25352;DHT22;13304;48.464;8.712;2023-09-19T01:07:53;19.00;89.30
25352;DHT22;13304;48.464;8.712;2023-09-19T01:10:20;19.00;90.00
25352;DHT22;13304;48.464;8.712;2023-09-19T01:30:32;18.90;89.60
25352;DHT22;13304;48.464;8.712;2023-09-19T01:33:01;18.90;89.50
25352;DHT22;13304;48.464;8.712;2023-09-19T01:35:27;19.00;89.50
25352;DHT22;13304;48.464;8.712;2023-09-19T01:37:53;19.00;89.50
25352;DHT22;13304;48.464;8.712;2023-09-19T01:40:20;18.90;89.50
25352;DHT22;13304;48.464;8.712;2023-09-19T01:43:09;18.90;89.60
25352;DHT22;13304;48.464;8.712;2023-09-19T01:51:09;18.90;89.60
25352;DHT22;13304;48.464;8.712;2023-09-19T01:53:43;18.90;89.70
25352;DHT22;13304;48.464;8.712;2023-09-19T01:56:16;18.90;89.80
25352;DHT22;13304;48.464;8.712;2023-09-19T01:58:49;18.90;89.90
25352;DHT22;13304;48.464;8.712;2023-09-19T02:01:22;18.90;89.80
25352;DHT22;13304;48.464;8.712;2023-09-19T02:03:49;18.90;89.80
25352;DHT22;13304;48.464;8.712;2023-09-19T02:06:16;18.80;89.60
25352;DHT22;13304;48.464;8.712;2023-09-19T02:08:43;18.90;89.70
25352;DHT22;13304;48.464;8.712;2023-09-19T02:11:13;18.90;89.80
25352;DHT22;13304;48.464;8.712;2023-09-19T02:13:39;18.80;89.90
25352;DHT22;13304;48.464;8.712;2023-09-19T02:16:06;18.80;89.70
25352;DHT22;13304;48.464;8.712;2023-09-19T02:18:34;18.80;89.70
25352;DHT22;13304;48.464;8.712;2023-09-19T02:21:01;18.80;89.80
25352;DHT22;13304;48.464;8.712;2023-09-19T02:23:26;18.80;90.00
25352;DHT22;13304;48.464;8.712;2023-09-19T02:25:53;18.70;89.90
25352;DHT22;13304;48.464;8.712;2023-09-19T02:28:19;18.70;89.90
25352;DHT22;13304;48.464;8.712;2023-09-19T02:30:48;18.70;90.00
25352;DHT22;13304;48.464;8.712;2023-09-19T02:33:14;18.70;90.10
25352;DHT22;13304;48.464;8.712;2023-09-19T02:35:40;18.60;90.10
25352;DHT22;13304;48.464;8.712;2023-09-19T02:38:05;18.70;90.10
25352;DHT22;13304;48.464;8.712;2023-09-19T02:40:33;18.70;90.10
25352;DHT22;13304;48.464;8.712;2023-09-19T02:43:01;18.70;90.20
25352;DHT22;13304;48.464;8.712;2023-09-19T02:45:27;18.70;90.30
25352;DHT22;13304;48.464;8.712;2023-09-19T02:47:53;18.70;90.30
25352;DHT22;13304;48.464;8.712;2023-09-19T02:50:20;18.70;90.30
25352;DHT22;13304;48.464;8.712;2023-09-19T02:52:46;18.80;90.40
25352;DHT22;13304;48.464;8.712;2023-09-19T02:55:16;18.80;90.40
25352;DHT22;13304;48.464;8.712;2023-09-19T02:57:51;18.80;90.40
25352;DHT22;13304;48.464;8.712;2023-09-19T03:00:19;18.80;90.40
25352;DHT22;13304;48.464;8.712;2023-09-19T03:02:52;18.80;90.50
25352;DHT22;13304;48.464;8.712;2023-09-19T03:05:19;18.80;90.50
25352;DHT22;13304;48.464;8.712;2023-09-19T03:07:47;18.80;90.50
25352;DHT22;13304;48.464;8.712;2023-09-19T03:10:19;18.80;90.50
25352;DHT22;13304;48.464;8.712;2023-09-19T03:12:46;18.80;90.50
25352;DHT22;13304;48.464;8.712;2023-09-19T03:15:12;18.80;90.50
25352;DHT22;13304;48.464;8.712;2023-09-19T03:17:38;18.90;90.50
25352;DHT22;13304;48.464;8.712;2023-09-19T03:20:08;18.90;90.50
25352;DHT22;13304;48.464;8.712;2023-09-19T03:22:35;18.90;90.40
25352;DHT22;13304;48.464;8.712;2023-09-19T03:25:00;18.90;90.40
25352;DHT22;13304;48.464;8.712;2023-09-19T03:27:26;18.90;90.40
25352;DHT22;13304;48.464;8.712;2023-09-19T03:29:52;18.90;90.40
25352;DHT22;13304;48.464;8.712;2023-09-19T03:32:19;18.90;90.40
25352;DHT22;13304;48.464;8.712;2023-09-19T03:34:45;18.90;90.40
25352;DHT22;13304;48.464;8.712;2023-09-19T03:37:13;18.90;90.40
25352;DHT22;13304;48.464;8.712;2023-09-19T03:39:39;18.90;90.40
25352;DHT22;13304;48.464;8.712;2023-09-19T03:42:05;18.90;90.40
25352;DHT22;13304;48.464;8.712;2023-09-19T03:44:32;18.90;90.40
25352;DHT22;13304;48.464;8.712;2023-09-19T03:46:58;18.80;90.30
25352;DHT22;13304;48.464;8.712;2023-09-19T03:49:23;18.80;90.40
25352;DHT22;13304;48.464;8.712;2023-09-19T03:51:49;18.80;90.40
25352;DHT22;13304;48.464;8.712;2023-09-19T03:54:14;18.80;90.40
25352;DHT22;13304;48.464;8.712;2023-09-19T03:56:42;18.80;90.50
25352;DHT22;13304;48.464;8.712;2023-09-19T03:59:08;18.80;90.50
25352;DHT22;13304;48.464;8.712;2023-09-19T04:01:36;18.70;90.40
25352;DHT22;13304;48.464;8.712;2023-09-19T04:04:02;18.70;90.40
25352;DHT22;13304;48.464;8.712;2023-09-19T04:06:34;18.80;90.40
25352;DHT22;13304;48.464;8.712;2023-09-19T04:09:03;18.70;90.40
25352;DHT22;13304;48.464;8.712;2023-09-19T04:11:29;18.70;90.40
25352;DHT22;13304;48.464;8.712;2023-09-19T04:13:56;18.70;90.50
25352;DHT22;13304;48.464;8.712;2023-09-19T04:16:21;18.70;90.50
25352;DHT22;13304;48.464;8.712;2023-09-19T04:18:47;18.70;90.50
25352;DHT22;13304;48.464;8.712;2023-09-19T04:21:13;18.70;90.60
25352;DHT22;13304;48.464;8.712;2023-09-19T04:23:38;18.70;90.50
25352;DHT22;13304;48.464;8.712;2023-09-19T04:26:04;18.70;90.60
25352;DHT22;13304;48.464;8.712;2023-09-19T04:28:31;18.70;90.60
25352;DHT22;13304;48.464;8.712;2023-09-19T04:30:57;18.70;90.60
25352;DHT22;13304;48.464;8.712;2023-09-19T04:33:25;18.70;90.60
25352;DHT22;13304;48.464;8.712;2023-09-19T04:35:52;18.70;91.00
25352;DHT22;13304;48.464;8.712;2023-09-19T04:38:21;18.70;90.70
25352;DHT22;13304;48.464;8.712;2023-09-19T04:40:47;18.70;90.70
25352;DHT22;13304;48.464;8.712;2023-09-19T04:43:13;18.70;90.70
25352;DHT22;13304;48.464;8.712;2023-09-19T04:45:39;18.70;90.70
25352;DHT22;13304;48.464;8.712;2023-09-19T04:48:05;18.70;90.80
25352;DHT22;13304;48.464;8.712;2023-09-19T04:50:34;18.80;90.80
25352;DHT22;13304;48.464;8.712;2023-09-19T04:53:00;18.80;90.80
25352;DHT22;13304;48.464;8.712;2023-09-19T04:55:26;18.80;90.70
25352;DHT22;13304;48.464;8.712;2023-09-19T04:57:53;18.80;90.70
25352;DHT22;13304;48.464;8.712;2023-09-19T05:00:22;18.80;90.70
25352;DHT22;13304;48.464;8.712;2023-09-19T05:02:56;18.80;90.60
25352;DHT22;13304;48.464;8.712;2023-09-19T05:05:22;18.80;90.60
25352;DHT22;13304;48.464;8.712;2023-09-19T05:07:49;18.90;90.60
25352;DHT22;13304;48.464;8.712;2023-09-19T05:10:16;18.90;90.50
25352;DHT22;13304;48.464;8.712;2023-09-19T05:12:43;18.90;90.80
25352;DHT22;13304;48.464;8.712;2023-09-19T05:15:12;18.90;90.40
25352;DHT22;13304;48.464;8.712;2023-09-19T05:17:39;18.90;90.40
25352;DHT22;13304;48.464;8.712;2023-09-19T05:20:06;18.90;90.40
25352;DHT22;13304;48.464;8.712;2023-09-19T05:22:50;18.90;90.30
25352;DHT22;13304;48.464;8.712;2023-09-19T05:25:16;18.90;90.30
25352;DHT22;13304;48.464;8.712;2023-09-19T05:27:44;18.90;90.40
25352;DHT22;13304;48.464;8.712;2023-09-19T05:30:10;18.90;90.40
25352;DHT22;13304;48.464;8.712;2023-09-19T05:32:36;18.90;90.40
25352;DHT22;13304;48.464;8.712;2023-09-19T05:35:01;18.90;90.40
25352;DHT22;13304;48.464;8.712;2023-09-19T05:37:27;18.90;90.50
25352;DHT22;13304;48.464;8.712;2023-09-19T05:39:52;18.90;90.50
25352;DHT22;13304;48.464;8.712;2023-09-19T05:42:22;18.90;90.50
25352;DHT22;13304;48.464;8.712;2023-09-19T05:44:48;18.90;90.50
25352;DHT22;13304;48.464;8.712;2023-09-19T05:47:14;18.90;90.60
25352;DHT22;13304;48.464;8.712;2023-09-19T05:49:39;18.90;90.60
25352;DHT22;13304;48.464;8.712;2023-09-19T05:52:06;18.90;90.60
25352;DHT22;13304;48.464;8.712;2023-09-19T05:54:32;18.90;90.60
25352;DHT22;13304;48.464;8.712;2023-09-19T05:57:00;18.90;90.60
25352;DHT22;13304;48.464;8.712;2023-09-19T05:59:25;18.90;90.70
25352;DHT22;13304;48.464;8.712;2023-09-19T06:01:51;18.90;90.80
25352;DHT22;13304;48.464;8.712;2023-09-19T06:04:17;18.90;90.80
25352;DHT22;13304;48.464;8.712;2023-09-19T06:06:44;18.90;90.80
25352;DHT22;13304;48.464;8.712;2023-09-19T06:09:10;18.90;90.80
25352;DHT22;13304;48.464;8.712;2023-09-19T06:11:36;18.90;90.90
25352;DHT22;13304;48.464;8.712;2023-09-19T06:14:04;18.90;90.90
25352;DHT22;13304;48.464;8.712;2023-09-19T06:16:30;18.90;90.90
25352;DHT22;13304;48.464;8.712;2023-09-19T06:18:58;18.90;90.90
25352;DHT22;13304;48.464;8.712;2023-09-19T06:21:26;18.90;90.90
25352;DHT22;13304;48.464;8.712;2023-09-19T06:23:53;18.90;90.90
25352;DHT22;13304;48.464;8.712;2023-09-19T06:26:19;19.00;91.00
25352;DHT22;13304;48.464;8.712;2023-09-19T06:28:44;18.90;90.90
25352;DHT22;13304;48.464;8.712;2023-09-19T06:31:10;18.90;90.90
25352;DHT22;13304;48.464;8.712;2023-09-19T06:33:39;19.00;90.90
25352;DHT22;13304;48.464;8.712;2023-09-19T06:36:08;19.00;90.90
25352;DHT22;13304;48.464;8.712;2023-09-19T06:38:34;19.00;90.80
25352;DHT22;13304;48.464;8.712;2023-09-19T06:41:00;19.00;90.80
25352;DHT22;13304;48.464;8.712;2023-09-19T06:43:27;19.00;90.80
25352;DHT22;13304;48.464;8.712;2023-09-19T06:45:54;19.00;90.80
25352;DHT22;13304;48.464;8.712;2023-09-19T06:48:20;19.00;90.80
25352;DHT22;13304;48.464;8.712;2023-09-19T06:50:46;19.10;90.90
25352;DHT22;13304;48.464;8.712;2023-09-19T06:53:13;19.10;90.90
25352;DHT22;13304;48.464;8.712;2023-09-19T06:55:39;19.10;90.80
25352;DHT22;13304;48.464;8.712;2023-09-19T06:58:05;19.10;90.80
25352;DHT22;13304;48.464;8.712;2023-09-19T07:00:31;19.10;90.70
25352;DHT22;13304;48.464;8.712;2023-09-19T07:03:03;19.20;90.60
25352;DHT22;13304;48.464;8.712;2023-09-19T07:05:32;19.20;90.50
25352;DHT22;13304;48.464;8.712;2023-09-19T07:07:59;19.20;90.30
25352;DHT22;13304;48.464;8.712;2023-09-19T07:10:26;19.20;90.10
25352;DHT22;13304;48.464;8.712;2023-09-19T07:12:59;19.20;90.00
25352;DHT22;13304;48.464;8.712;2023-09-19T07:15:28;19.20;89.70
25352;DHT22;13304;48.464;8.712;2023-09-19T07:17:54;19.30;89.50
25352;DHT22;13304;48.464;8.712;2023-09-19T07:20:21;19.30;89.40
25352;DHT22;13304;48.464;8.712;2023-09-19T07:22:49;19.30;89.20
25352;DHT22;13304;48.464;8.712;2023-09-19T07:25:16;19.30;88.90
25352;DHT22;13304;48.464;8.712;2023-09-19T07:27:42;19.30;88.80
25352;DHT22;13304;48.464;8.712;2023-09-19T07:30:08;19.30;88.40
25352;DHT22;13304;48.464;8.712;2023-09-19T07:32:35;19.30;87.80
25352;DHT22;13304;48.464;8.712;2023-09-19T07:35:02;19.30;87.90
25352;DHT22;13304;48.464;8.712;2023-09-19T07:37:30;19.30;87.40
25352;DHT22;13304;48.464;8.712;2023-09-19T07:39:58;19.30;87.40
25352;DHT22;13304;48.464;8.712;2023-09-19T07:42:24;19.20;87.00
25352;DHT22;13304;48.464;8.712;2023-09-19T07:44:51;19.30;86.50
25352;DHT22;13304;48.464;8.712;2023-09-19T07:47:17;19.30;86.50
25352;DHT22;13304;48.464;8.712;2023-09-19T07:49:42;19.30;86.10
25352;DHT22;13304;48.464;8.712;2023-09-19T07:52:09;19.30;86.00
25352;DHT22;13304;48.464;8.712;2023-09-19T07:54:35;19.30;86.00
25352;DHT22;13304;48.464;8.712;2023-09-19T07:57:02;19.30;86.10
25352;DHT22;13304;48.464;8.712;2023-09-19T07:59:27;19.30;86.60
25352;DHT22;13304;48.464;8.712;2023-09-19T08:01:53;19.30;86.60
25352;DHT22;13304;48.464;8.712;2023-09-19T08:04:19;19.30;86.50
25352;DHT22;13304;48.464;8.712;2023-09-19T08:06:45;19.40;86.70
25352;DHT22;13304;48.464;8.712;2023-09-19T08:09:11;19.40;86.60
25352;DHT22;13304;48.464;8.712;2023-09-19T08:11:38;19.40;86.60
25352;DHT22;13304;48.464;8.712;2023-09-19T08:14:04;19.50;86.20
25352;DHT22;13304;48.464;8.712;2023-09-19T08:16:31;19.50;85.60
25352;DHT22;13304;48.464;8.712;2023-09-19T08:18:57;19.60;85.50
25352;DHT22;13304;48.464;8.712;2023-09-19T08:21:23;19.60;85.10
25352;DHT22;13304;48.464;8.712;2023-09-19T08:23:50;19.60;85.40
25352;DHT22;13304;48.464;8.712;2023-09-19T08:26:15;19.60;84.40
25352;DHT22;13304;48.464;8.712;2023-09-19T08:28:42;19.70;84.40
25352;DHT22;13304;48.464;8.712;2023-09-19T08:31:08;19.70;83.90
25352;DHT22;13304;48.464;8.712;2023-09-19T08:33:35;19.70;83.80
25352;DHT22;13304;48.464;8.712;2023-09-19T08:36:02;19.70;83.80
25352;DHT22;13304;48.464;8.712;2023-09-19T08:38:31;19.80;83.70
25352;DHT22;13304;48.464;8.712;2023-09-19T08:40:59;19.80;83.50
25352;DHT22;13304;48.464;8.712;2023-09-19T08:43:28;19.90;83.40
25352;DHT22;13304;48.464;8.712;2023-09-19T08:48:32;19.90;79.50
25352;DHT22;13304;48.464;8.712;2023-09-19T08:51:26;20.00;81.80
25352;DHT22;13304;48.464;8.712;2023-09-19T08:54:07;19.90;81.80
25352;DHT22;13304;48.464;8.712;2023-09-19T08:56:35;20.00;81.10
25352;DHT22;13304;48.464;8.712;2023-09-19T08:59:05;20.00;81.30
25352;DHT22;13304;48.464;8.712;2023-09-19T09:01:33;20.00;81.70
25352;DHT22;13304;48.464;8.712;2023-09-19T09:03:59;20.00;80.50
25352;DHT22;13304;48.464;8.712;2023-09-19T09:06:25;20.10;81.10
25352;DHT22;13304;48.464;8.712;2023-09-19T09:08:51;20.10;80.10
25352;DHT22;13304;48.464;8.712;2023-09-19T09:11:18;20.20;79.90
25352;DHT22;13304;48.464;8.712;2023-09-19T09:13:44;20.20;79.20
25352;DHT22;13304;48.464;8.712;2023-09-19T09:16:10;20.20;80.10
25352;DHT22;13304;48.464;8.712;2023-09-19T09:18:36;20.30;80.30
25352;DHT22;13304;48.464;8.712;2023-09-19T09:21:02;20.40;80.30
25352;DHT22;13304;48.464;8.712;2023-09-19T09:23:30;20.50;79.90
25352;DHT22;13304;48.464;8.712;2023-09-19T09:25:58;20.60;79.70
25352;DHT22;13304;48.464;8.712;2023-09-19T09:28:26;20.70;78.30
25352;DHT22;13304;48.464;8.712;2023-09-19T09:30:57;20.70;78.10
25352;DHT22;13304;48.464;8.712;2023-09-19T09:33:33;20.80;77.80
25352;DHT22;13304;48.464;8.712;2023-09-19T09:36:00;20.80;77.50
25352;DHT22;13304;48.464;8.712;2023-09-19T09:38:50;20.90;76.50
25352;DHT22;13304;48.464;8.712;2023-09-19T09:41:16;20.90;76.60
25352;DHT22;13304;48.464;8.712;2023-09-19T09:43:53;21.00;76.60
25352;DHT22;13304;48.464;8.712;2023-09-19T09:46:20;21.00;75.90
25352;DHT22;13304;48.464;8.712;2023-09-19T09:54:29;21.10;74.80
25352;DHT22;13304;48.464;8.712;2023-09-19T09:57:06;21.10;74.00
25352;DHT22;13304;48.464;8.712;2023-09-19T09:59:56;21.20;74.30
25352;DHT22;13304;48.464;8.712;2023-09-19T10:02:41;21.10;73.70
25352;DHT22;13304;48.464;8.712;2023-09-19T10:05:15;21.20;73.80
25352;DHT22;13304;48.464;8.712;2023-09-19T10:08:12;21.20;73.70
25352;DHT22;13304;48.464;8.712;2023-09-19T10:10:39;21.20;74.80
25352;DHT22;13304;48.464;8.712;2023-09-19T10:13:09;21.30;75.10
25352;DHT22;13304;48.464;8.712;2023-09-19T10:15:39;21.40;74.70
25352;DHT22;13304;48.464;8.712;2023-09-19T10:18:12;21.40;74.50
25352;DHT22;13304;48.464;8.712;2023-09-19T10:20:44;21.60;72.70
25352;DHT22;13304;48.464;8.712;2023-09-19T10:23:12;21.60;73.40
25352;DHT22;13304;48.464;8.712;2023-09-19T10:25:40;21.70;72.70
25352;DHT22;13304;48.464;8.712;2023-09-19T10:28:07;21.70;73.20
25352;DHT22;13304;48.464;8.712;2023-09-19T10:30:46;21.70;73.90
25352;DHT22;13304;48.464;8.712;2023-09-19T10:33:14;21.70;70.40
25352;DHT22;13304;48.464;8.712;2023-09-19T10:35:45;21.80;70.60
25352;DHT22;13304;48.464;8.712;2023-09-19T10:38:12;21.70;70.20
25352;DHT22;13304;48.464;8.712;2023-09-19T10:40:39;21.70;70.10
25352;DHT22;13304;48.464;8.712;2023-09-19T10:43:15;21.70;70.90
25352;DHT22;13304;48.464;8.712;2023-09-19T10:45:44;21.60;71.00
25352;DHT22;13304;48.464;8.712;2023-09-19T10:48:10;21.60;70.10
25352;DHT22;13304;48.464;8.712;2023-09-19T10:50:48;21.70;71.40
25352;DHT22;13304;48.464;8.712;2023-09-19T10:53:17;21.70;71.60
25352;DHT22;13304;48.464;8.712;2023-09-19T10:55:50;21.70;71.00
25352;DHT22;13304;48.464;8.712;2023-09-19T10:58:31;21.80;71.30
25352;DHT22;13304;48.464;8.712;2023-09-19T11:01:00;21.70;70.30
25352;DHT22;13304;48.464;8.712;2023-09-19T11:03:38;21.80;71.50
25352;DHT22;13304;48.464;8.712;2023-09-19T11:06:14;21.80;71.30
25352;DHT22;13304;48.464;8.712;2023-09-19T11:09:03;21.90;70.50
25352;DHT22;13304;48.464;8.712;2023-09-19T11:11:43;21.90;70.70
25352;DHT22;13304;48.464;8.712;2023-09-19T11:14:29;21.90;71.20
25352;DHT22;13304;48.464;8.712;2023-09-19T11:30:32;22.00;70.80
25352;DHT22;13304;48.464;8.712;2023-09-19T11:33:22;22.00;70.70
25352;DHT22;13304;48.464;8.712;2023-09-19T11:36:16;22.00;70.20
25352;DHT22;13304;48.464;8.712;2023-09-19T11:43:53;22.00;69.40
25352;DHT22;13304;48.464;8.712;2023-09-19T11:46:24;22.00;69.20
25352;DHT22;13304;48.464;8.712;2023-09-19T11:49:15;22.00;70.10
25352;DHT22;13304;48.464;8.712;2023-09-19T11:51:41;21.90;69.40
25352;DHT22;13304;48.464;8.712;2023-09-19T11:54:12;22.00;69.60
25352;DHT22;13304;48.464;8.712;2023-09-19T11:56:46;22.00;69.60
25352;DHT22;13304;48.464;8.712;2023-09-19T11:59:23;22.00;69.10
25352;DHT22;13304;48.464;8.712;2023-09-19T12:01:53;21.90;70.50
25352;DHT22;13304;48.464;8.712;2023-09-19T12:04:43;21.90;69.00
25352;DHT22;13304;48.464;8.712;2023-09-19T12:07:15;21.90;69.00
25352;DHT22;13304;48.464;8.712;2023-09-19T12:12:19;22.00;68.80
25352;DHT22;13304;48.464;8.712;2023-09-19T12:14:49;21.90;69.10
25352;DHT22;13304;48.464;8.712;2023-09-19T12:17:19;21.90;68.70
25352;DHT22;13304;48.464;8.712;2023-09-19T12:19:52;21.90;69.00
25352;DHT22;13304;48.464;8.712;2023-09-19T12:22:18;21.90;68.60
25352;DHT22;13304;48.464;8.712;2023-09-19T12:24:46;21.80;69.00
25352;DHT22;13304;48.464;8.712;2023-09-19T12:27:12;21.80;67.90
25352;DHT22;13304;48.464;8.712;2023-09-19T12:29:49;21.80;67.90
25352;DHT22;13304;48.464;8.712;2023-09-19T12:32:15;21.70;68.20
25352;DHT22;13304;48.464;8.712;2023-09-19T12:34:52;21.70;68.90
25352;DHT22;13304;48.464;8.712;2023-09-19T12:37:19;21.70;69.50
25352;DHT22;13304;48.464;8.712;2023-09-19T12:39:52;21.70;69.80
25352;DHT22;13304;48.464;8.712;2023-09-19T12:42:22;21.70;69.10
25352;DHT22;13304;48.464;8.712;2023-09-19T12:44:50;21.70;68.90
25352;DHT22;13304;48.464;8.712;2023-09-19T12:47:23;21.80;69.30
25352;DHT22;13304;48.464;8.712;2023-09-19T12:50:25;21.80;69.40
25352;DHT22;13304;48.464;8.712;2023-09-19T12:52:55;21.70;69.00
25352;DHT22;13304;48.464;8.712;2023-09-19T12:55:30;21.80;69.50
25352;DHT22;13304;48.464;8.712;2023-09-19T12:58:11;21.80;69.20
25352;DHT22;13304;48.464;8.712;2023-09-19T13:00:41;21.80;68.30
25352;DHT22;13304;48.464;8.712;2023-09-19T13:03:25;21.90;68.00
25352;DHT22;13304;48.464;8.712;2023-09-19T13:13:27;21.90;66.20
25352;DHT22;13304;48.464;8.712;2023-09-19T13:15:55;21.90;66.50
25352;DHT22;13304;48.464;8.712;2023-09-19T13:18:23;21.90;65.90
25352;DHT22;13304;48.464;8.712;2023-09-19T13:21:12;21.90;67.00
25352;DHT22;13304;48.464;8.712;2023-09-19T13:23:49;21.90;65.30
25352;DHT22;13304;48.464;8.712;2023-09-19T13:26:14;21.90;67.40
25352;DHT22;13304;48.464;8.712;2023-09-19T13:28:40;22.00;67.20
25352;DHT22;13304;48.464;8.712;2023-09-19T13:31:06;22.00;66.70
25352;DHT22;13304;48.464;8.712;2023-09-19T13:33:34;22.00;66.40
25352;DHT22;13304;48.464;8.712;2023-09-19T13:35:59;22.00;66.20
25352;DHT22;13304;48.464;8.712;2023-09-19T13:38:25;22.00;67.30
25352;DHT22;13304;48.464;8.712;2023-09-19T13:40:50;22.00;67.10
25352;DHT22;13304;48.464;8.712;2023-09-19T13:43:18;22.10;67.70
25352;DHT22;13304;48.464;8.712;2023-09-19T13:45:43;22.20;67.70
25352;DHT22;13304;48.464;8.712;2023-09-19T13:48:09;22.20;68.00
25352;DHT22;13304;48.464;8.712;2023-09-19T13:50:37;22.30;66.70
25352;DHT22;13304;48.464;8.712;2023-09-19T13:53:10;22.30;65.40
25352;DHT22;13304;48.464;8.712;2023-09-19T13:55:35;22.40;65.20
25352;DHT22;13304;48.464;8.712;2023-09-19T13:58:03;22.40;65.10
25352;DHT22;13304;48.464;8.712;2023-09-19T14:00:32;22.40;65.20
25352;DHT22;13304;48.464;8.712;2023-09-19T14:03:00;22.40;65.20
25352;DHT22;13304;48.464;8.712;2023-09-19T14:05:26;22.40;64.30
25352;DHT22;13304;48.464;8.712;2023-09-19T14:07:53;22.40;64.70
25352;DHT22;13304;48.464;8.712;2023-09-19T14:10:22;22.40;64.80
25352;DHT22;13304;48.464;8.712;2023-09-19T14:12:48;22.40;65.40
25352;DHT22;13304;48.464;8.712;2023-09-19T14:15:14;22.40;65.50
25352;DHT22;13304;48.464;8.712;2023-09-19T14:17:40;22.40;65.30
25352;DHT22;13304;48.464;8.712;2023-09-19T14:20:10;22.40;65.10
25352;DHT22;13304;48.464;8.712;2023-09-19T14:22:36;22.40;65.20
25352;DHT22;13304;48.464;8.712;2023-09-19T14:25:05;22.40;64.50
25352;DHT22;13304;48.464;8.712;2023-09-19T14:27:31;22.30;64.30
25352;DHT22;13304;48.464;8.712;2023-09-19T14:29:56;22.30;65.00
25352;DHT22;13304;48.464;8.712;2023-09-19T14:32:23;22.40;64.10
25352;DHT22;13304;48.464;8.712;2023-09-19T14:34:49;22.30;63.80
25352;DHT22;13304;48.464;8.712;2023-09-19T14:37:14;22.40;64.00
25352;DHT22;13304;48.464;8.712;2023-09-19T14:39:41;22.40;65.00
25352;DHT22;13304;48.464;8.712;2023-09-19T14:42:10;22.40;63.80
25352;DHT22;13304;48.464;8.712;2023-09-19T14:44:36;22.50;63.90
25352;DHT22;13304;48.464;8.712;2023-09-19T14:47:03;22.50;64.50
25352;DHT22;13304;48.464;8.712;2023-09-19T14:49:33;22.50;64.60
25352;DHT22;13304;48.464;8.712;2023-09-19T14:51:59;22.50;63.90
25352;DHT22;13304;48.464;8.712;2023-09-19T14:54:24;22.50;63.50
25352;DHT22;13304;48.464;8.712;2023-09-19T14:56:50;22.60;63.50
25352;DHT22;13304;48.464;8.712;2023-09-19T14:59:32;22.60;63.30
25352;DHT22;13304;48.464;8.712;2023-09-19T15:01:57;22.60;63.30
25352;DHT22;13304;48.464;8.712;2023-09-19T15:04:24;22.60;63.80
25352;DHT22;13304;48.464;8.712;2023-09-19T15:06:49;22.60;63.70
25352;DHT22;13304;48.464;8.712;2023-09-19T15:09:16;22.70;63.70
25352;DHT22;13304;48.464;8.712;2023-09-19T15:11:44;22.70;62.50
25352;DHT22;13304;48.464;8.712;2023-09-19T15:14:10;22.70;63.20
25352;DHT22;13304;48.464;8.712;2023-09-19T15:16:35;22.70;63.40
25352;DHT22;13304;48.464;8.712;2023-09-19T15:19:01;22.70;63.60
25352;DHT22;13304;48.464;8.712;2023-09-19T15:21:26;22.70;63.70
25352;DHT22;13304;48.464;8.712;2023-09-19T15:23:52;22.80;62.70
25352;DHT22;13304;48.464;8.712;2023-09-19T15:26:18;22.80;62.10
25352;DHT22;13304;48.464;8.712;2023-09-19T15:28:47;22.80;61.50
25352;DHT22;13304;48.464;8.712;2023-09-19T15:31:13;22.80;61.40
25352;DHT22;13304;48.464;8.712;2023-09-19T15:33:39;22.80;61.30
25352;DHT22;13304;48.464;8.712;2023-09-19T15:38:32;22.80;60.90
25352;DHT22;13304;48.464;8.712;2023-09-19T15:41:19;22.80;61.00
25352;DHT22;13304;48.464;8.712;2023-09-19T15:43:46;22.90;60.80
25352;DHT22;13304;48.464;8.712;2023-09-19T15:46:11;22.90;60.90
25352;DHT22;13304;48.464;8.712;2023-09-19T15:48:39;22.90;61.30
25352;DHT22;13304;48.464;8.712;2023-09-19T15:51:04;23.00;60.50
25352;DHT22;13304;48.464;8.712;2023-09-19T15:53:43;23.10;61.10
25352;DHT22;13304;48.464;8.712;2023-09-19T15:56:13;23.30;60.60
25352;DHT22;13304;48.464;8.712;2023-09-19T15:58:44;23.50;61.10
25352;DHT22;13304;48.464;8.712;2023-09-19T16:01:10;23.70;60.20
25352;DHT22;13304;48.464;8.712;2023-09-19T16:03:43;24.00;60.00
25352;DHT22;13304;48.464;8.712;2023-09-19T16:08:39;24.60;58.60
25352;DHT22;13304;48.464;8.712;2023-09-19T16:11:05;24.90;57.50
25352;DHT22;13304;48.464;8.712;2023-09-19T16:13:30;25.20;56.90
25352;DHT22;13304;48.464;8.712;2023-09-19T16:15:56;25.30;55.80
25352;DHT22;13304;48.464;8.712;2023-09-19T16:18:22;25.40;55.50
25352;DHT22;13304;48.464;8.712;2023-09-19T16:20:48;25.40;55.00
25352;DHT22;13304;48.464;8.712;2023-09-19T16:23:14;25.30;54.60
25352;DHT22;13304;48.464;8.712;2023-09-19T16:25:39;25.10;54.40
25352;DHT22;13304;48.464;8.712;2023-09-19T16:28:05;24.90;54.60
25352;DHT22;13304;48.464;8.712;2023-09-19T16:30:34;24.70;54.70
25352;DHT22;13304;48.464;8.712;2023-09-19T16:33:00;24.50;55.20
25352;DHT22;13304;48.464;8.712;2023-09-19T16:35:26;24.30;55.70
25352;DHT22;13304;48.464;8.712;2023-09-19T16:37:51;24.00;55.30
25352;DHT22;13304;48.464;8.712;2023-09-19T16:40:17;23.90;55.60
25352;DHT22;13304;48.464;8.712;2023-09-19T16:42:42;23.70;55.60
25352;DHT22;13304;48.464;8.712;2023-09-19T16:45:09;23.50;55.60